Terminal Aerodrome Forecast
Issued by NWS Omaha/Valley, NE

Home | Current Version | Previous Version | Text Only | Print | Product List | Glossary On
Versions: 1 2 3 4 5 6 7 8 9 10 11 12 13 14 15 16 17
000
FTUS43 KOAX 231145
TAFLNK
TAF
KLNK 231145Z 2312/2412 04014G21KT P6SM OVC008
     FM231800 06015G23KT P6SM OVC015
     FM232000 05016G24KT P6SM VCSH BKN025
     FM240000 04018G26KT 3SM -SHRA OVC015
     FM240400 03017KT 2SM -RA BR OVC008
     FM241100 35020G28KT 2SM -RASN BR OVC006=

USA.gov is the U.S. government's official web portal to all federal, state and local government web resources and services.